Time;durP1;ratioP1;P1;durP2;ratioP2;P2;SDS_P1;SDS_P2;PMS_P1;PMS_P2;Temp;Humidity;BMP_temperature;BMP_pressure;BME280_temperature;BME280_humidity;BME280_pressure;Samples;Min_cycle;Max_cycle;Signal;HPM_P1;HPM_P2
2023/11/09 00:00:48;;;;;;;2.30;0.70;;;11.70;99.90;;;;;;4985615;28;20485;-69
2023/11/09 00:03:15;;;;;;;1.33;1.23;;;11.70;99.90;;;;;;4982745;28;20449;-69
2023/11/09 00:05:43;;;;;;;1.80;1.10;;;11.70;99.90;;;;;;4984306;28;20464;-69
2023/11/09 00:08:09;;;;;;;1.47;0.60;;;11.80;99.90;;;;;;4981986;28;20445;-68
2023/11/09 00:10:36;;;;;;;3.23;1.10;;;11.80;99.90;;;;;;4979793;28;20469;-68
2023/11/09 00:13:03;;;;;;;0.90;0.90;;;11.80;99.90;;;;;;4980691;28;20812;-68
2023/11/09 00:15:30;;;;;;;1.10;1.10;;;11.80;99.90;;;;;;4981178;28;20456;-67
2023/11/09 00:17:59;;;;;;;1.53;0.73;;;11.80;99.90;;;;;;4980657;28;20967;-67
2023/11/09 00:20:26;;;;;;;1.67;1.00;;;11.80;99.90;;;;;;4982373;28;20461;-67
2023/11/09 00:22:53;;;;;;;2.10;1.40;;;11.70;99.90;;;;;;4979492;28;20500;-67
2023/11/09 00:25:22;;;;;;;2.97;0.83;;;11.80;99.90;;;;;;4979025;28;20446;-67
2023/11/09 00:27:51;;;;;;;2.13;0.83;;;11.80;99.90;;;;;;4980909;28;20459;-67
2023/11/09 00:30:18;;;;;;;1.30;1.20;;;11.80;99.90;;;;;;4981232;28;20468;-66
2023/11/09 00:32:45;;;;;;;2.20;1.10;;;11.80;99.90;;;;;;4981186;28;20455;-67
2023/11/09 00:35:13;;;;;;;1.40;1.10;;;11.80;99.90;;;;;;4980871;28;20491;-67
2023/11/09 00:37:42;;;;;;;3.50;1.00;;;11.70;99.90;;;;;;4980595;28;20548;-69
2023/11/09 00:40:11;;;;;;;0.80;0.80;;;11.70;99.90;;;;;;4980197;28;20473;-69
2023/11/09 00:42:38;;;;;;;0.50;0.40;;;11.70;99.90;;;;;;4980660;28;20490;-69
2023/11/09 00:45:06;;;;;;;0.60;0.60;;;11.70;99.90;;;;;;4979356;28;20524;-70
2023/11/09 00:47:34;;;;;;;2.53;0.80;;;11.70;99.90;;;;;;4980079;28;20441;-71
2023/11/09 00:50:00;;;;;;;1.00;0.50;;;11.70;99.90;;;;;;4978117;28;20986;-70
2023/11/09 00:52:29;;;;;;;2.43;0.70;;;11.70;99.90;;;;;;4980167;28;20517;-69
2023/11/09 00:54:56;;;;;;;1.10;0.67;;;11.70;99.90;;;;;;4979223;28;20576;-70
2023/11/09 00:57:25;;;;;;;2.20;0.63;;;11.70;99.90;;;;;;4979840;28;20453;-70
2023/11/09 00:59:52;;;;;;;3.60;0.60;;;11.70;99.90;;;;;;4978628;28;20477;-71
2023/11/09 01:02:19;;;;;;;1.87;0.97;;;11.60;99.90;;;;;;4976570;28;20484;-71
2023/11/09 01:04:45;;;;;;;1.53;0.53;;;11.60;99.90;;;;;;4976962;28;20867;-71
2023/11/09 01:07:13;;;;;;;1.40;0.70;;;11.50;99.90;;;;;;4977932;28;20456;-71
2023/11/09 01:09:41;;;;;;;0.83;0.63;;;11.50;99.90;;;;;;4977674;28;20472;-71
2023/11/09 01:12:09;;;;;;;2.20;0.60;;;11.50;99.90;;;;;;4977908;28;20453;-72
2023/11/09 01:14:36;;;;;;;1.23;0.63;;;11.50;99.90;;;;;;4977182;28;20484;-72
2023/11/09 01:17:03;;;;;;;0.83;0.40;;;11.50;99.90;;;;;;4977347;28;20445;-71
2023/11/09 01:19:30;;;;;;;2.20;0.53;;;11.50;99.90;;;;;;4977276;28;20979;-72
2023/11/09 01:21:57;;;;;;;2.87;0.60;;;11.60;99.90;;;;;;4977914;28;20473;-72
2023/11/09 01:24:23;;;;;;;5.60;0.60;;;11.60;99.90;;;;;;4977811;28;20445;-72
2023/11/09 01:26:52;;;;;;;1.60;0.77;;;11.60;99.90;;;;;;4977808;28;20449;-71
2023/11/09 01:29:21;;;;;;;0.50;0.50;;;11.70;99.90;;;;;;4978278;28;20461;-70
2023/11/09 01:31:49;;;;;;;1.70;0.50;;;11.60;99.90;;;;;;4978782;28;20453;-69
2023/11/09 01:34:16;;;;;;;0.40;0.40;;;11.60;99.90;;;;;;4978283;28;20485;-70
2023/11/09 01:36:43;;;;;;;1.93;0.50;;;11.50;99.90;;;;;;4978265;28;20973;-71
2023/11/09 01:39:12;;;;;;;0.77;0.77;;;11.50;99.90;;;;;;4976042;28;20468;-71
2023/11/09 01:41:39;;;;;;;1.00;0.60;;;11.60;99.90;;;;;;4977799;28;20552;-71
2023/11/09 01:44:07;;;;;;;1.47;0.90;;;11.70;99.90;;;;;;4977256;28;20445;-71
2023/11/09 01:46:34;;;;;;;3.00;0.80;;;11.60;99.90;;;;;;4975601;28;20512;-71
2023/11/09 01:49:01;;;;;;;1.70;0.50;;;11.60;99.90;;;;;;4977017;28;20465;-72
2023/11/09 01:51:29;;;;;;;1.87;0.60;;;11.60;99.90;;;;;;4977594;28;20449;-71
2023/11/09 01:53:57;;;;;;;3.43;0.87;;;11.70;99.90;;;;;;4976871;28;20485;-71
2023/11/09 01:56:25;;;;;;;1.40;0.60;;;11.70;99.90;;;;;;4977065;28;20997;-72
2023/11/09 01:58:53;;;;;;;0.80;0.60;;;11.70;99.90;;;;;;4975384;28;20994;-72
2023/11/09 02:01:22;;;;;;;1.07;0.77;;;11.80;99.90;;;;;;4976112;28;20773;-71
2023/11/09 02:03:48;;;;;;;2.80;0.53;;;11.80;99.90;;;;;;4976724;28;20483;-72
2023/11/09 02:06:18;;;;;;;1.47;0.47;;;11.80;99.90;;;;;;4976071;28;20450;-71
2023/11/09 02:08:45;;;;;;;2.80;0.70;;;11.80;99.90;;;;;;4976642;28;20465;-72
2023/11/09 02:11:12;;;;;;;0.80;0.50;;;11.80;99.90;;;;;;4976527;28;20457;-72
2023/11/09 02:13:39;;;;;;;0.70;0.60;;;11.80;99.90;;;;;;4976742;28;20456;-72
2023/11/09 02:16:09;;;;;;;0.50;0.50;;;11.80;99.90;;;;;;4989550;28;20456;-72
2023/11/09 02:18:37;;;;;;;0.90;0.60;;;11.80;99.90;;;;;;4983670;28;20445;-72
2023/11/09 02:21:05;;;;;;;1.47;0.53;;;11.80;99.90;;;;;;4979463;28;20469;-71
2023/11/09 02:23:33;;;;;;;1.53;0.43;;;11.70;99.90;;;;;;4979766;28;20499;-72
2023/11/09 02:26:02;;;;;;;0.40;0.30;;;11.70;99.90;;;;;;4978416;28;20452;-72
2023/11/09 02:28:29;;;;;;;1.20;0.63;;;11.70;99.90;;;;;;4977499;28;20457;-72
2023/11/09 02:30:57;;;;;;;1.03;0.40;;;11.70;99.90;;;;;;4977401;28;20993;-72
2023/11/09 02:33:24;;;;;;;1.43;0.50;;;11.80;99.90;;;;;;4976610;28;20446;-73
2023/11/09 02:35:52;;;;;;;2.07;0.60;;;11.80;99.90;;;;;;4976163;28;20482;-73
2023/11/09 02:38:20;;;;;;;3.80;0.57;;;11.80;99.90;;;;;;4976489;28;20457;-72
2023/11/09 02:40:47;;;;;;;2.80;0.80;;;11.80;99.90;;;;;;4976341;28;20839;-72
2023/11/09 02:43:15;;;;;;;0.50;0.50;;;11.90;99.90;;;;;;4976283;28;20445;-73
2023/11/09 02:45:42;;;;;;;1.70;0.50;;;11.90;99.90;;;;;;4974929;28;20445;-73
2023/11/09 02:48:09;;;;;;;0.70;0.50;;;11.90;99.90;;;;;;4975860;28;20508;-73
2023/11/09 02:50:36;;;;;;;3.53;0.57;;;11.90;99.90;;;;;;4975456;28;20469;-73
2023/11/09 02:53:02;;;;;;;2.57;0.67;;;11.90;99.90;;;;;;4982483;28;20441;-73
2023/11/09 02:55:29;;;;;;;0.60;0.50;;;11.90;99.90;;;;;;4979463;28;20469;-73
2023/11/09 02:57:56;;;;;;;0.80;0.40;;;12.00;99.90;;;;;;4976021;28;20950;-73
2023/11/09 03:00:25;;;;;;;0.60;0.50;;;11.90;99.90;;;;;;4975855;28;20480;-73
2023/11/09 03:02:53;;;;;;;0.40;0.30;;;12.00;99.90;;;;;;4975976;28;20544;-73
2023/11/09 03:05:22;;;;;;;0.83;0.60;;;12.00;99.90;;;;;;4975523;28;20453;-73
2023/11/09 03:07:50;;;;;;;1.07;0.47;;;12.00;99.90;;;;;;4975618;28;20481;-73
2023/11/09 03:10:17;;;;;;;0.40;0.33;;;12.00;99.90;;;;;;4975498;28;20469;-73
2023/11/09 03:12:47;;;;;;;0.40;0.40;;;12.00;99.90;;;;;;4975751;28;20456;-74
2023/11/09 03:15:14;;;;;;;0.47;0.40;;;12.00;99.90;;;;;;4974497;28;20481;-74
2023/11/09 03:17:42;;;;;;;0.40;0.30;;;12.00;99.90;;;;;;4974987;28;20453;-73
2023/11/09 03:20:10;;;;;;;0.70;0.40;;;12.00;99.90;;;;;;4975124;28;20468;-74
2023/11/09 03:22:37;;;;;;;3.40;0.50;;;12.00;99.90;;;;;;4974996;28;20939;-74
2023/11/09 03:25:06;;;;;;;0.60;0.30;;;12.10;99.90;;;;;;4975446;28;20460;-74
2023/11/09 03:27:33;;;;;;;0.83;0.47;;;12.00;99.90;;;;;;4974053;28;20453;-75
2023/11/09 03:30:00;;;;;;;1.40;0.50;;;12.10;99.90;;;;;;4975221;28;20501;-75
2023/11/09 03:32:27;;;;;;;1.33;0.70;;;12.10;99.90;;;;;;4975099;28;20446;-75
2023/11/09 03:34:55;;;;;;;1.17;0.47;;;12.10;99.90;;;;;;4974733;28;20484;-75
2023/11/09 03:37:22;;;;;;;2.10;0.63;;;12.20;99.90;;;;;;4974894;28;20453;-74
2023/11/09 03:39:49;;;;;;;1.33;0.50;;;12.20;99.90;;;;;;4974922;28;20831;-74
2023/11/09 03:42:17;;;;;;;0.53;0.50;;;12.20;99.90;;;;;;4974925;28;20927;-74
2023/11/09 03:44:44;;;;;;;0.40;0.30;;;12.20;99.90;;;;;;4974704;28;20958;-75
2023/11/09 03:47:11;;;;;;;1.67;0.87;;;12.20;99.90;;;;;;4974880;28;20453;-74
2023/11/09 03:49:42;;;;;;;0.40;0.40;;;12.20;99.90;;;;;;4974715;28;20465;-74
2023/11/09 03:52:10;;;;;;;0.50;0.50;;;12.20;99.90;;;;;;4973772;28;20452;-75
2023/11/09 03:54:37;;;;;;;1.80;0.50;;;12.20;99.90;;;;;;4974712;28;21012;-74
2023/11/09 03:57:04;;;;;;;1.53;0.37;;;12.20;99.90;;;;;;4974617;28;20449;-75
2023/11/09 03:59:31;;;;;;;0.67;0.57;;;12.30;99.90;;;;;;4974616;28;20500;-75
2023/11/09 04:01:58;;;;;;;0.73;0.40;;;12.20;99.90;;;;;;4975029;28;20455;-74
2023/11/09 04:04:26;;;;;;;2.10;0.50;;;12.20;99.90;;;;;;4978904;28;20949;-75
2023/11/09 04:06:53;;;;;;;0.63;0.50;;;12.20;99.90;;;;;;4978961;28;20457;-75
2023/11/09 04:09:22;;;;;;;0.93;0.40;;;12.20;99.90;;;;;;4979583;28;20543;-75
2023/11/09 04:11:49;;;;;;;1.10;0.40;;;12.10;99.90;;;;;;4979944;28;20452;-75
2023/11/09 04:14:15;;;;;;;2.00;0.50;;;12.10;99.90;;;;;;4978942;28;20453;-75
2023/11/09 04:16:43;;;;;;;0.67;0.67;;;12.20;99.90;;;;;;4978710;28;20876;-75
2023/11/09 04:19:10;;;;;;;2.33;0.60;;;12.20;99.90;;;;;;4978845;28;20468;-75
2023/11/09 04:21:37;;;;;;;7.07;0.50;;;12.20;99.90;;;;;;4979107;28;20454;-75
2023/11/09 04:24:06;;;;;;;3.20;0.40;;;12.20;99.90;;;;;;4978678;28;20491;-74
2023/11/09 04:26:34;;;;;;;0.63;0.40;;;12.20;99.90;;;;;;4978115;28;20544;-74
2023/11/09 04:29:01;;;;;;;0.90;0.50;;;12.20;99.90;;;;;;4978386;28;20469;-74
2023/11/09 04:31:30;;;;;;;2.07;0.50;;;12.20;99.90;;;;;;4978043;28;20444;-74
2023/11/09 04:34:03;;;;;;;1.03;0.50;;;12.10;99.90;;;;;;4992628;28;20507;-74
2023/11/09 04:36:31;;;;;;;1.37;0.47;;;12.10;99.90;;;;;;4984380;28;20982;-74
2023/11/09 04:38:58;;;;;;;0.40;0.37;;;12.10;99.90;;;;;;4982145;28;20504;-74
2023/11/09 04:41:25;;;;;;;0.40;0.30;;;12.10;99.90;;;;;;4979197;28;20453;-74
2023/11/09 04:43:55;;;;;;;0.80;0.37;;;12.10;99.90;;;;;;4979299;28;20543;-74
2023/11/09 04:46:23;;;;;;;0.97;0.40;;;12.10;99.90;;;;;;4979336;28;20451;-73
2023/11/09 04:48:55;;;;;;;0.60;0.30;;;12.10;99.90;;;;;;4977461;28;20896;-74
2023/11/09 04:51:30;;;;;;;0.60;0.50;;;12.10;99.90;;;;;;4978156;28;20813;-74
2023/11/09 04:54:03;;;;;;;0.40;0.30;;;12.20;99.90;;;;;;4976701;28;20503;-74
2023/11/09 04:56:42;;;;;;;0.43;0.33;;;12.20;99.90;;;;;;4977756;28;21005;-73
2023/11/09 05:07:24;;;;;;;0.50;0.40;;;12.20;99.90;;;;;;4977698;28;20453;-74
2023/11/09 05:09:51;;;;;;;0.40;0.30;;;12.20;99.90;;;;;;4976336;28;20920;-74
2023/11/09 05:12:18;;;;;;;0.40;0.30;;;12.30;99.90;;;;;;4977395;28;20500;-74
2023/11/09 05:14:47;;;;;;;1.13;0.40;;;12.20;99.90;;;;;;4977118;28;20952;-74
2023/11/09 05:17:15;;;;;;;1.63;0.40;;;12.20;99.90;;;;;;4977614;28;20449;-73
2023/11/09 05:19:42;;;;;;;0.30;0.30;;;12.20;99.90;;;;;;4977456;28;20473;-72
2023/11/09 05:22:10;;;;;;;0.40;0.30;;;12.20;99.90;;;;;;4977530;28;20451;-73
2023/11/09 05:24:40;;;;;;;1.23;0.40;;;12.20;99.90;;;;;;4977374;28;20496;-72
2023/11/09 05:27:08;;;;;;;0.40;0.30;;;12.10;99.90;;;;;;4976361;28;20496;-72
2023/11/09 05:29:35;;;;;;;0.40;0.40;;;12.20;99.90;;;;;;4977369;28;20505;-72
2023/11/09 05:32:06;;;;;;;1.80;0.50;;;12.20;99.90;;;;;;4980488;28;20433;-72
2023/11/09 05:34:33;;;;;;;3.80;0.40;;;12.20;99.90;;;;;;4980622;28;20445;-72
2023/11/09 05:37:00;;;;;;;1.77;0.30;;;12.20;99.90;;;;;;4978065;28;20535;-72
2023/11/09 05:39:28;;;;;;;0.40;0.37;;;12.10;99.90;;;;;;4976743;28;20849;-71
2023/11/09 05:41:55;;;;;;;0.40;0.33;;;12.10;99.90;;;;;;4977081;28;20481;-72
2023/11/09 05:44:22;;;;;;;0.60;0.43;;;12.10;99.90;;;;;;4977131;28;20453;-71
2023/11/09 05:46:49;;;;;;;0.60;0.40;;;12.10;99.90;;;;;;4976953;28;20492;-71
2023/11/09 05:49:17;;;;;;;1.17;0.40;;;12.00;99.90;;;;;;4976887;28;20469;-71
2023/11/09 05:51:45;;;;;;;1.43;0.80;;;12.00;99.90;;;;;;4976625;28;20871;-73
2023/11/09 05:54:12;;;;;;;0.50;0.40;;;12.00;99.90;;;;;;4976792;28;20467;-72
2023/11/09 05:56:40;;;;;;;2.67;0.60;;;11.90;99.90;;;;;;4976337;28;20524;-72
2023/11/09 05:59:06;;;;;;;1.37;0.40;;;11.90;99.90;;;;;;4974941;28;20860;-72
2023/11/09 06:01:35;;;;;;;0.40;0.40;;;11.80;99.90;;;;;;4976496;28;20442;-72
2023/11/09 06:04:03;;;;;;;1.37;0.40;;;11.90;99.90;;;;;;4975319;28;20821;-72
2023/11/09 06:06:31;;;;;;;0.50;0.50;;;11.80;99.90;;;;;;4975371;28;20445;-73
2023/11/09 06:08:59;;;;;;;0.50;0.50;;;11.80;99.90;;;;;;4976451;28;20465;-73
2023/11/09 06:11:29;;;;;;;0.50;0.43;;;11.80;99.90;;;;;;4975254;28;20477;-74
2023/11/09 06:13:56;;;;;;;2.37;0.50;;;11.80;99.90;;;;;;4976535;28;20533;-73
2023/11/09 06:16:22;;;;;;;1.33;0.40;;;11.80;99.90;;;;;;4976124;28;20586;-74
2023/11/09 06:18:49;;;;;;;1.47;0.50;;;11.70;99.90;;;;;;4975101;28;20492;-73
2023/11/09 06:21:16;;;;;;;1.03;0.30;;;11.70;99.90;;;;;;4976304;28;20515;-73
2023/11/09 06:23:44;;;;;;;0.70;0.30;;;11.70;99.90;;;;;;4976612;28;20456;-73
2023/11/09 06:26:14;;;;;;;1.33;0.43;;;11.70;99.90;;;;;;4976013;28;20819;-73
2023/11/09 06:28:43;;;;;;;0.40;0.40;;;11.70;99.90;;;;;;4976290;28;20876;-72
2023/11/09 06:31:10;;;;;;;0.40;0.30;;;11.70;99.90;;;;;;4976008;28;21022;-72
2023/11/09 06:33:36;;;;;;;1.77;0.40;;;11.80;99.90;;;;;;4976761;28;20446;-73
2023/11/09 06:36:06;;;;;;;0.93;0.40;;;11.80;99.90;;;;;;4975601;28;20481;-73
2023/11/09 06:38:33;;;;;;;0.30;0.23;;;11.80;99.90;;;;;;4975959;28;20453;-73
2023/11/09 06:41:02;;;;;;;0.40;0.30;;;11.70;99.90;;;;;;4976356;28;20880;-73
2023/11/09 06:43:29;;;;;;;0.50;0.40;;;11.70;99.90;;;;;;4974725;28;20824;-73
2023/11/09 06:45:56;;;;;;;0.60;0.50;;;11.80;99.90;;;;;;4975829;28;20958;-73
2023/11/09 06:48:23;;;;;;;0.40;0.27;;;11.80;99.90;;;;;;4975997;28;20529;-73
2023/11/09 06:50:50;;;;;;;0.57;0.30;;;11.80;99.90;;;;;;4988823;28;20465;-73
2023/11/09 06:53:20;;;;;;;1.30;0.40;;;11.80;99.90;;;;;;4980392;28;20449;-73
2023/11/09 06:55:47;;;;;;;1.03;0.40;;;11.80;99.90;;;;;;4979121;28;20484;-73
2023/11/09 06:58:15;;;;;;;1.33;0.57;;;11.70;99.90;;;;;;4989230;28;20447;-73
2023/11/09 07:00:42;;;;;;;0.90;0.57;;;11.70;99.90;;;;;;4977001;28;20546;-73
2023/11/09 07:03:09;;;;;;;0.83;0.30;;;11.70;99.90;;;;;;4976113;28;20446;-73
2023/11/09 07:05:39;;;;;;;0.50;0.40;;;11.60;99.90;;;;;;4975832;28;20536;-73
2023/11/09 07:08:06;;;;;;;0.80;0.60;;;11.60;99.90;;;;;;4975670;28;21016;-74
2023/11/09 07:10:34;;;;;;;0.60;0.40;;;11.60;99.90;;;;;;4974578;28;20884;-74
2023/11/09 07:13:00;;;;;;;1.17;0.63;;;11.60;99.90;;;;;;4976516;28;20481;-74
2023/11/09 07:15:30;;;;;;;0.67;0.30;;;11.60;99.90;;;;;;4977324;28;20445;-73
2023/11/09 07:17:57;;;;;;;0.60;0.50;;;11.70;99.90;;;;;;4977150;28;20449;-73
2023/11/09 07:20:24;;;;;;;1.47;0.40;;;11.60;99.90;;;;;;4979446;28;20966;-73
2023/11/09 07:22:56;;;;;;;0.40;0.30;;;11.70;99.90;;;;;;4978457;28;20942;-73
2023/11/09 07:25:22;;;;;;;1.33;0.37;;;11.70;99.90;;;;;;4977157;28;20456;-73
2023/11/09 07:27:51;;;;;;;0.40;0.40;;;11.60;99.90;;;;;;4976929;28;20934;-73
2023/11/09 07:30:18;;;;;;;0.50;0.30;;;11.60;99.90;;;;;;4977076;28;20461;-74
2023/11/09 07:32:46;;;;;;;1.00;0.40;;;11.60;99.90;;;;;;4977206;28;20552;-74
2023/11/09 07:35:13;;;;;;;0.60;0.40;;;11.60;99.90;;;;;;4977231;28;20460;-73
2023/11/09 07:37:40;;;;;;;0.50;0.30;;;11.70;99.90;;;;;;4976312;28;20481;-73
2023/11/09 07:40:09;;;;;;;0.43;0.30;;;11.70;99.90;;;;;;4974935;28;20475;-72
2023/11/09 07:42:36;;;;;;;0.87;0.30;;;11.60;99.90;;;;;;4975579;28;20449;-71
2023/11/09 07:45:02;;;;;;;6.50;1.70;;;11.60;99.90;;;;;;4975503;28;20481;-72
2023/11/09 07:47:29;;;;;;;3.20;1.00;;;11.50;99.90;;;;;;4974895;28;20448;-73
2023/11/09 07:49:57;;;;;;;3.50;1.20;;;11.50;99.90;;;;;;4974980;28;20480;-73
2023/11/09 07:52:25;;;;;;;3.90;1.00;;;11.30;99.90;;;;;;4975105;28;20508;-73
2023/11/09 07:54:52;;;;;;;4.23;1.40;;;11.30;99.90;;;;;;4975069;28;20456;-73
2023/11/09 07:57:19;;;;;;;4.83;1.40;;;11.30;99.90;;;;;;4975444;28;20512;-74
2023/11/09 07:59:46;;;;;;;3.53;1.57;;;11.30;99.90;;;;;;4974544;28;20477;-74
2023/11/09 08:02:13;;;;;;;2.50;1.50;;;11.30;99.90;;;;;;4974825;28;20943;-73
2023/11/09 08:04:41;;;;;;;4.43;1.90;;;11.30;99.90;;;;;;4974906;28;20472;-74
2023/11/09 08:07:09;;;;;;;3.33;1.53;;;11.30;99.90;;;;;;4974843;28;20452;-73
2023/11/09 08:09:37;;;;;;;4.30;2.67;;;11.30;99.90;;;;;;4974788;28;20524;-74
2023/11/09 08:12:05;;;;;;;4.57;2.10;;;11.40;99.90;;;;;;4982804;28;20512;-73
2023/11/09 08:14:32;;;;;;;4.67;1.70;;;11.40;99.90;;;;;;4975499;28;20445;-73
2023/11/09 08:16:59;;;;;;;5.90;1.60;;;11.50;99.90;;;;;;4974955;28;21002;-74
2023/11/09 08:19:26;;;;;;;7.33;2.20;;;11.40;99.90;;;;;;4975171;28;20467;-74
2023/11/09 08:21:53;;;;;;;4.83;1.73;;;11.50;99.90;;;;;;4974798;28;20500;-74
2023/11/09 08:24:21;;;;;;;5.07;1.57;;;11.50;99.90;;;;;;4974655;28;20448;-74
2023/11/09 08:26:48;;;;;;;4.73;2.07;;;11.50;99.90;;;;;;4974194;28;20452;-73
2023/11/09 08:29:15;;;;;;;5.50;2.30;;;11.60;99.90;;;;;;4974480;28;20532;-73
2023/11/09 08:31:42;;;;;;;6.63;1.77;;;11.60;99.90;;;;;;4973259;28;20456;-73
2023/11/09 08:34:09;;;;;;;12.60;2.50;;;11.60;99.90;;;;;;4974743;28;20796;-73
2023/11/09 08:36:35;;;;;;;12.17;1.97;;;11.60;99.90;;;;;;4974209;28;20481;-73
2023/11/09 08:39:03;;;;;;;12.53;2.70;;;11.60;99.90;;;;;;4974128;28;20492;-74
2023/11/09 08:41:31;;;;;;;7.47;2.10;;;11.70;99.90;;;;;;4974539;28;20481;-74
2023/11/09 08:43:58;;;;;;;8.60;1.90;;;11.70;99.90;;;;;;4975210;28;20956;-73
2023/11/09 08:46:25;;;;;;;6.73;1.40;;;11.80;99.90;;;;;;4974918;28;20928;-73
2023/11/09 08:48:52;;;;;;;4.30;1.47;;;11.80;99.90;;;;;;4976289;28;20472;-74
2023/11/09 08:51:19;;;;;;;4.97;1.97;;;11.80;99.90;;;;;;4977884;28;20819;-73
2023/11/09 08:53:46;;;;;;;7.10;2.50;;;11.90;99.90;;;;;;4977716;28;20939;-73
2023/11/09 08:56:13;;;;;;;7.17;1.90;;;11.90;99.90;;;;;;4977737;28;20509;-73
2023/11/09 08:58:41;;;;;;;4.20;1.73;;;11.90;99.90;;;;;;4977529;28;20456;-74
2023/11/09 09:01:16;;;;;;;7.40;1.70;;;12.00;99.90;;;;;;4977847;28;20437;-73
2023/11/09 09:03:45;;;;;;;6.33;1.70;;;12.00;99.90;;;;;;4978099;28;20439;-74
2023/11/09 09:06:12;;;;;;;4.53;1.60;;;12.10;99.90;;;;;;4976473;28;20479;-73
2023/11/09 09:08:40;;;;;;;8.10;2.10;;;12.20;99.90;;;;;;4977744;28;20445;-74
2023/11/09 09:11:07;;;;;;;10.37;2.77;;;12.30;99.90;;;;;;4992531;28;20509;-73
2023/11/09 09:13:35;;;;;;;8.13;3.47;;;12.40;99.90;;;;;;4981930;28;20453;-74
2023/11/09 09:16:04;;;;;;;4.43;2.70;;;12.40;99.90;;;;;;4979701;28;20472;-74
2023/11/09 09:18:31;;;;;;;12.90;2.27;;;12.50;99.90;;;;;;4978532;28;20464;-74
2023/11/09 09:20:58;;;;;;;4.70;1.60;;;12.60;99.90;;;;;;4977937;28;20869;-74
2023/11/09 09:23:25;;;;;;;7.97;2.20;;;12.80;99.90;;;;;;4977526;28;20453;-74
2023/11/09 09:25:54;;;;;;;2.63;1.60;;;12.80;99.30;;;;;;4977463;28;20449;-74
2023/11/09 09:28:22;;;;;;;7.93;1.83;;;12.90;99.00;;;;;;4977310;28;20449;-74
2023/11/09 09:30:49;;;;;;;8.97;2.47;;;13.00;98.80;;;;;;4975968;28;20982;-74
2023/11/09 09:33:17;;;;;;;10.03;2.30;;;13.00;98.70;;;;;;4977773;28;20819;-74
2023/11/09 09:35:46;;;;;;;7.10;2.23;;;13.00;98.10;;;;;;4976121;28;20511;-75
2023/11/09 09:38:15;;;;;;;6.10;2.23;;;13.00;98.20;;;;;;4976774;28;20484;-74
2023/11/09 09:40:43;;;;;;;8.93;1.80;;;13.00;98.10;;;;;;4975798;28;20473;-72
2023/11/09 09:43:12;;;;;;;7.60;2.10;;;12.90;98.10;;;;;;4977314;28;20488;-74
2023/11/09 09:45:41;;;;;;;5.23;1.93;;;12.90;98.20;;;;;;4977142;28;20457;-74
2023/11/09 09:48:11;;;;;;;7.73;2.30;;;12.90;98.40;;;;;;4976733;28;20935;-74
2023/11/09 09:50:42;;;;;;;6.40;1.97;;;12.90;98.10;;;;;;4976867;28;20967;-74
2023/11/09 09:53:09;;;;;;;8.63;2.00;;;12.90;97.90;;;;;;4975739;28;20457;-74
2023/11/09 09:55:37;;;;;;;7.07;1.90;;;12.90;98.00;;;;;;4976973;28;20833;-74
2023/11/09 09:58:05;;;;;;;6.10;1.57;;;13.00;98.10;;;;;;4975102;28;20881;-74
2023/11/09 10:00:33;;;;;;;8.57;3.33;;;13.00;98.10;;;;;;4974137;28;20485;-75
2023/11/09 10:03:01;;;;;;;5.10;1.50;;;13.10;98.00;;;;;;4976785;28;20445;-74
2023/11/09 10:05:33;;;;;;;8.07;2.30;;;13.20;97.40;;;;;;4976783;28;20445;-75
2023/11/09 10:08:05;;;;;;;7.73;2.77;;;13.30;97.30;;;;;;4976642;28;20452;-75
2023/11/09 10:10:40;;;;;;;9.00;2.37;;;13.40;97.40;;;;;;4976479;28;20473;-74
2023/11/09 10:13:13;;;;;;;5.80;1.60;;;13.60;97.40;;;;;;4976607;28;20429;-74
2023/11/09 10:15:41;;;;;;;7.73;3.13;;;13.70;96.90;;;;;;4975962;28;20457;-75
2023/11/09 10:18:11;;;;;;;9.83;2.63;;;13.70;96.20;;;;;;4975900;28;20521;-75
2023/11/09 10:20:38;;;;;;;7.80;3.20;;;13.70;96.40;;;;;;4976262;28;20469;-74
2023/11/09 10:23:11;;;;;;;5.13;2.30;;;13.70;96.30;;;;;;4975995;28;20445;-75
2023/11/09 10:25:42;;;;;;;7.03;2.10;;;13.60;96.60;;;;;;4976173;28;20430;-75
2023/11/09 10:28:14;;;;;;;9.60;2.47;;;13.60;96.30;;;;;;4976450;28;20452;-75
2023/11/09 10:30:44;;;;;;;7.77;2.27;;;13.60;96.60;;;;;;4975994;28;20853;-74
2023/11/09 10:33:11;;;;;;;9.33;2.17;;;13.70;96.50;;;;;;4975885;28;20555;-75
2023/11/09 10:35:39;;;;;;;3.77;1.80;;;13.80;96.00;;;;;;4974441;28;20495;-75
2023/11/09 10:38:09;;;;;;;11.83;2.73;;;13.90;95.90;;;;;;4975685;28;20489;-75
2023/11/09 10:40:36;;;;;;;2.93;1.77;;;13.90;95.90;;;;;;4976193;28;20483;-75
2023/11/09 10:43:05;;;;;;;8.17;2.43;;;13.90;95.90;;;;;;4976061;28;20512;-75
2023/11/09 10:45:36;;;;;;;6.13;2.17;;;13.90;96.00;;;;;;4975670;28;20516;-74
2023/11/09 10:48:07;;;;;;;5.93;1.70;;;13.90;95.70;;;;;;4975933;28;20422;-74
2023/11/09 10:50:44;;;;;;;7.80;2.50;;;13.90;95.40;;;;;;4975787;28;20470;-74
2023/11/09 10:53:15;;;;;;;11.17;2.60;;;13.90;95.50;;;;;;4990766;28;20433;-73
2023/11/09 10:55:43;;;;;;;9.43;3.03;;;13.70;95.10;;;;;;4976528;28;20445;-75
2023/11/09 10:58:12;;;;;;;5.73;1.90;;;13.60;95.40;;;;;;4975664;28;20480;-74
2023/11/09 11:00:42;;;;;;;11.13;2.30;;;13.60;95.90;;;;;;4975645;28;20477;-75
2023/11/09 11:03:16;;;;;;;9.87;2.97;;;13.70;96.20;;;;;;4976606;28;20815;-75
2023/11/09 11:05:47;;;;;;;7.50;1.97;;;13.70;96.10;;;;;;4975831;28;20485;-75
2023/11/09 11:08:16;;;;;;;11.10;2.67;;;13.60;96.00;;;;;;4976030;28;20437;-74
2023/11/09 11:10:51;;;;;;;8.23;2.60;;;13.60;95.50;;;;;;4975317;28;20476;-74
2023/11/09 11:13:19;;;;;;;7.43;2.10;;;13.60;95.50;;;;;;4974421;28;20479;-75
2023/11/09 11:16:16;;;;;;;11.87;2.23;;;13.50;95.60;;;;;;4975279;28;20461;-75
2023/11/09 11:19:16;;;;;;;7.90;2.00;;;13.60;95.80;;;;;;4973861;28;20480;-74
2023/11/09 11:21:57;;;;;;;9.70;3.33;;;13.50;96.00;;;;;;4975152;28;20530;-74
2023/11/09 11:25:08;;;;;;;7.90;2.80;;;13.50;95.80;;;;;;4975354;28;20528;-74
2023/11/09 11:27:55;;;;;;;13.17;2.80;;;13.60;95.80;;;;;;4975707;28;20437;-74
2023/11/09 11:30:26;;;;;;;6.40;2.57;;;13.60;95.80;;;;;;4985647;28;20493;-75
2023/11/09 11:32:55;;;;;;;5.63;2.20;;;13.60;95.60;;;;;;4979647;28;20457;-74
2023/11/09 11:35:42;;;;;;;10.20;2.93;;;13.70;95.20;;;;;;4976469;28;20815;-74
2023/11/09 11:38:33;;;;;;;13.80;3.50;;;13.90;95.10;;;;;;4975640;28;20476;-74
2023/11/09 11:41:16;;;;;;;11.83;3.10;;;14.00;95.10;;;;;;4975505;28;20508;-74
2023/11/09 11:43:50;;;;;;;9.47;4.23;;;14.10;93.90;;;;;;4975280;28;20442;-75
2023/11/09 11:46:19;;;;;;;7.47;3.17;;;14.30;94.00;;;;;;4973960;28;20483;-74
2023/11/09 11:48:50;;;;;;;10.63;3.23;;;14.40;93.60;;;;;;4974921;28;20453;-74
2023/11/09 11:51:22;;;;;;;10.13;3.47;;;14.50;93.40;;;;;;4973541;28;20533;-75
2023/11/09 11:53:52;;;;;;;10.53;2.63;;;14.60;93.30;;;;;;4975333;28;20440;-74
2023/11/09 11:56:31;;;;;;;5.53;2.67;;;14.70;92.80;;;;;;4974749;28;20453;-75
2023/11/09 11:59:00;;;;;;;12.60;3.40;;;14.70;92.50;;;;;;4975071;28;20495;-74
2023/11/09 12:01:29;;;;;;;7.67;2.17;;;14.70;92.70;;;;;;4975247;28;20436;-74
2023/11/09 12:03:58;;;;;;;5.07;1.93;;;14.70;92.00;;;;;;4974622;28;20460;-75
2023/11/09 12:06:27;;;;;;;6.67;3.17;;;14.70;92.00;;;;;;4974896;28;20453;-75
2023/11/09 12:08:58;;;;;;;7.87;2.40;;;14.70;91.60;;;;;;4973414;28;20496;-75
2023/11/09 12:11:33;;;;;;;5.93;2.57;;;14.80;91.70;;;;;;4973557;28;20430;-74
2023/11/09 12:14:01;;;;;;;5.47;1.80;;;15.00;91.00;;;;;;4973694;28;20455;-74
2023/11/09 12:16:29;;;;;;;6.53;2.27;;;15.10;90.20;;;;;;4974867;28;20456;-74
2023/11/09 12:18:57;;;;;;;6.77;3.53;;;15.20;90.20;;;;;;4974270;28;20579;-75
2023/11/09 12:21:27;;;;;;;12.30;2.10;;;15.20;89.80;;;;;;4974550;28;20445;-75
2023/11/09 12:23:56;;;;;;;11.13;2.10;;;15.30;89.20;;;;;;4977668;28;20579;-75
2023/11/09 12:26:28;;;;;;;7.10;2.23;;;15.30;88.40;;;;;;4978581;28;20898;-75
2023/11/09 12:28:55;;;;;;;8.93;2.00;;;15.40;87.70;;;;;;4978489;28;20833;-75
2023/11/09 12:31:24;;;;;;;8.97;2.03;;;15.40;88.20;;;;;;4978158;28;20449;-74
2023/11/09 12:34:10;;;;;;;5.90;2.33;;;15.40;86.20;;;;;;4978452;28;20506;-75
2023/11/09 12:36:41;;;;;;;10.10;2.13;;;15.40;87.30;;;;;;4976925;28;20823;-74
2023/11/09 12:39:28;;;;;;;9.73;2.07;;;15.40;87.00;;;;;;4977938;28;20498;-75
2023/11/09 12:41:57;;;;;;;5.80;1.90;;;15.40;86.00;;;;;;4978105;28;20778;-74
2023/11/09 12:44:25;;;;;;;11.83;2.53;;;15.50;86.40;;;;;;4978156;28;20445;-74
2023/11/09 12:46:56;;;;;;;6.27;2.37;;;15.60;86.20;;;;;;4977697;28;20460;-75
2023/11/09 12:49:26;;;;;;;10.10;2.07;;;15.60;85.80;;;;;;4977764;28;20468;-75
2023/11/09 12:51:55;;;;;;;8.37;2.50;;;15.50;84.30;;;;;;4976853;28;20430;-74
2023/11/09 12:54:22;;;;;;;4.60;1.57;;;15.60;84.50;;;;;;4976516;28;20504;-75
2023/11/09 12:56:56;;;;;;;8.47;2.10;;;15.90;82.40;;;;;;4977348;28;20452;-74
2023/11/09 12:59:28;;;;;;;16.90;2.60;;;16.40;83.10;;;;;;4976224;28;20547;-76
2023/11/09 13:01:56;;;;;;;6.60;2.13;;;16.80;79.80;;;;;;4977829;28;20441;-75